createdAt,value
2022-10-18T06:45:56.903Z,12.23
2022-10-18T06:48:24.691Z,12.85
2022-10-18T06:51:01.117Z,12.73
2022-10-18T06:53:36.237Z,13.73
2022-10-18T06:56:13.614Z,13.57
2022-10-18T06:58:41.234Z,13.57
2022-10-18T07:01:11.031Z,13.57
2022-10-18T07:03:38.883Z,13.90
2022-10-18T07:06:10.394Z,13.00
2022-10-18T07:08:38.868Z,14.88
2022-10-18T07:11:08.719Z,13.75
2022-10-18T07:13:36.088Z,14.60
2022-10-18T07:16:15.789Z,13.32
2022-10-18T07:18:50.192Z,13.20
2022-10-18T07:21:22.502Z,12.63
2022-10-18T07:23:51.347Z,12.18
2022-10-18T07:26:31.497Z,12.10
2022-10-18T07:29:10.682Z,12.18
2022-10-18T07:31:39.229Z,12.60
2022-10-18T07:34:07.895Z,12.18
2022-10-18T07:36:35.769Z,12.57
2022-10-18T07:39:04.458Z,12.45
2022-10-18T07:41:33.859Z,12.25
2022-10-18T07:44:02.551Z,12.48
2022-10-18T07:46:30.165Z,12.27
2022-10-18T07:48:59.596Z,12.23
2022-10-18T07:51:28.252Z,12.63
2022-10-18T07:53:55.562Z,12.27
2022-10-18T07:56:23.259Z,12.73
2022-10-18T07:58:53.844Z,12.60
2022-10-18T08:01:25.979Z,12.07
2022-10-18T08:03:54.143Z,13.27
2022-10-18T08:06:23.002Z,13.80
2022-10-18T08:08:50.695Z,13.20
2022-10-18T08:11:23.424Z,13.20
2022-10-18T08:13:51.693Z,12.48
2022-10-18T08:16:29.771Z,12.82
2022-10-18T08:18:58.963Z,13.23
2022-10-18T08:21:27.061Z,11.57
2022-10-18T08:23:54.522Z,11.95
2022-10-18T08:26:23.962Z,12.02
2022-10-18T08:29:10.427Z,11.60
2022-10-18T08:31:39.453Z,10.73
2022-10-18T08:34:06.988Z,11.32
2022-10-18T08:36:34.389Z,11.50
2022-10-18T08:39:03.051Z,10.10
2022-10-18T08:41:38.495Z,11.18
2022-10-18T08:44:13.754Z,12.15
2022-10-18T08:46:47.905Z,11.90
2022-10-18T08:49:45.715Z,12.00
2022-10-18T08:52:45.169Z,11.77
2022-10-18T08:55:36.186Z,10.93
2022-10-18T08:58:21.576Z,10.07
2022-10-18T09:01:11.048Z,10.05
2022-10-18T09:03:59.949Z,10.20
2022-10-18T09:07:14.460Z,9.40
2022-10-18T09:10:07.407Z,10.50
2022-10-18T09:13:16.397Z,9.43
2022-10-18T09:16:05.933Z,9.20
2022-10-18T09:18:57.649Z,9.75
2022-10-18T09:21:54.836Z,9.07
2022-10-18T14:12:38.240Z,7.35
2022-10-18T14:15:21.399Z,6.38
2022-10-18T14:17:55.146Z,7.30
2022-10-18T14:20:49.073Z,7.97
2022-10-18T14:23:20.452Z,8.40
2022-10-18T14:25:48.502Z,12.75
2022-10-18T14:28:31.528Z,7.30
2022-10-18T14:31:19.725Z,9.00
2022-10-18T14:33:58.981Z,11.13
2022-10-18T14:36:46.600Z,7.75
2022-10-18T14:39:28.244Z,7.13
2022-10-18T14:41:58.053Z,9.23
2022-10-18T14:44:30.868Z,9.88
2022-10-18T14:47:04.019Z,8.70
2022-10-18T14:49:32.352Z,9.60
2022-10-18T14:52:01.156Z,9.23
2022-10-18T14:54:37.479Z,9.07
2022-10-18T14:57:08.460Z,7.35
2022-10-18T14:59:53.061Z,8.50
2022-10-18T15:02:25.637Z,8.07
2022-10-18T15:05:10.796Z,12.23
2022-10-18T15:07:39.952Z,8.10
2022-10-18T15:10:16.589Z,8.23
2022-10-18T15:13:08.125Z,8.77
2022-10-18T15:15:35.178Z,9.27
2022-10-18T15:18:05.391Z,9.30
2022-10-18T15:20:42.661Z,8.32
2022-10-18T15:23:25.291Z,8.57
2022-10-18T15:26:02.468Z,8.05
2022-10-18T15:28:50.271Z,8.88
2022-10-18T15:31:43.138Z,8.93
2022-10-18T15:34:27.834Z,9.52
2022-10-18T15:37:14.870Z,9.13
2022-10-18T15:39:42.225Z,8.93
2022-10-18T15:42:38.457Z,9.00
2022-10-18T15:45:25.681Z,9.52
2022-10-18T15:48:10.970Z,10.88
2022-10-18T15:50:41.542Z,9.20
2022-10-18T15:53:21.156Z,9.80
2022-10-18T15:56:06.379Z,9.35
2022-10-18T15:58:45.399Z,9.13
2022-10-18T16:01:26.801Z,10.38
2022-10-18T16:06:26.907Z,11.60
2022-10-18T16:08:54.948Z,11.25
2022-10-18T16:11:25.861Z,10.88
2022-10-18T16:13:57.826Z,12.38
2022-10-18T16:16:29.557Z,11.80
2022-10-18T16:18:57.888Z,11.38
2022-10-18T16:21:38.319Z,10.82
2022-10-18T16:24:10.830Z,10.00
2022-10-18T16:26:38.992Z,10.65
2022-10-18T16:29:11.195Z,11.27
2022-10-18T16:31:39.734Z,11.18
2022-10-18T16:36:38.460Z,10.75
2022-10-18T16:39:14.670Z,11.40
2022-10-18T16:41:41.943Z,13.13
2022-10-18T16:44:09.230Z,11.68
2022-10-18T16:46:37.209Z,11.93
2022-10-18T16:49:06.194Z,11.95
2022-10-18T16:51:42.671Z,11.35
2022-10-18T16:54:10.403Z,11.68
2022-10-18T16:56:39.604Z,11.75
2022-10-18T16:59:07.411Z,10.77
2022-10-18T17:01:36.101Z,11.52
2022-10-18T17:04:04.268Z,12.32
2022-10-18T17:06:33.681Z,11.48
2022-10-18T17:09:02.213Z,11.75
2022-10-18T17:11:31.840Z,11.63
2022-10-18T17:13:59.187Z,11.68
2022-10-18T17:16:33.682Z,11.07
2022-10-18T17:19:23.553Z,11.30
2022-10-18T17:21:50.895Z,11.85
2022-10-18T17:24:21.385Z,10.82
2022-10-18T17:26:48.723Z,11.25
2022-10-18T17:29:16.206Z,12.07
2022-10-18T17:31:43.636Z,11.07
2022-10-18T17:36:40.328Z,10.73
2022-10-18T17:39:13.739Z,12.00
2022-10-18T17:41:40.946Z,11.13
2022-10-18T17:44:08.300Z,11.52
2022-10-18T17:46:35.762Z,11.80
2022-10-18T17:49:03.329Z,11.70
2022-10-18T17:51:31.921Z,11.85
2022-10-18T17:56:31.176Z,11.52
2022-10-18T17:58:58.614Z,12.05
2022-10-18T18:01:26.025Z,11.18
2022-10-18T18:04:01.801Z,12.10
2022-10-18T18:06:39.108Z,11.40
2022-10-18T18:09:12.522Z,11.33
2022-10-18T18:11:43.628Z,11.50
2022-10-18T18:14:13.188Z,11.15
2022-10-18T18:16:47.655Z,12.10
2022-10-18T18:19:15.878Z,11.95
2022-10-18T18:21:43.468Z,11.60
2022-10-18T18:24:11.402Z,12.60
2022-10-18T18:26:40.523Z,13.20
2022-10-18T18:31:40.045Z,12.80
2022-10-18T18:34:10.473Z,13.18
2022-10-18T18:36:38.190Z,13.88
2022-10-18T18:39:06.113Z,12.95
2022-10-18T18:41:33.804Z,13.88
2022-10-18T18:44:05.156Z,13.07
2022-10-18T18:46:38.443Z,14.00
2022-10-18T18:49:08.429Z,13.15
2022-10-18T18:51:38.176Z,13.07
2022-10-18T18:54:12.386Z,13.52
2022-10-18T18:56:41.077Z,13.00
2022-10-18T18:59:08.854Z,12.80
2022-10-18T19:01:38.407Z,14.02
2022-10-18T19:04:09.225Z,13.32
2022-10-18T19:06:42.956Z,13.48
2022-10-18T19:09:25.642Z,15.18
2022-10-18T19:11:58.341Z,14.93
2022-10-18T19:14:26.160Z,15.30
2022-10-18T19:16:57.554Z,15.45
2022-10-18T19:19:28.492Z,15.70
2022-10-18T19:22:00.471Z,16.92
2022-10-18T19:24:30.586Z,15.77
2022-10-18T19:27:05.276Z,16.63
2022-10-18T19:29:36.349Z,16.65
2022-10-18T19:32:08.680Z,17.13
2022-10-18T19:34:36.239Z,16.38
2022-10-18T19:37:05.459Z,15.82
2022-10-18T19:39:36.911Z,16.13
2022-10-18T19:42:15.996Z,15.70
2022-10-18T19:44:46.056Z,15.48
2022-10-18T19:47:14.798Z,16.77
2022-10-18T19:49:43.094Z,16.20
2022-10-18T19:52:12.546Z,16.50
2022-10-18T19:54:40.196Z,16.92
2022-10-18T19:57:07.803Z,16.30
2022-10-18T19:59:36.134Z,17.05
2022-10-18T20:02:04.862Z,16.77
2022-10-18T20:04:35.022Z,16.95
2022-10-18T20:07:03.288Z,17.30
2022-10-18T20:09:30.891Z,17.52
2022-10-18T20:11:58.179Z,17.05
2022-10-18T20:14:25.938Z,18.05
2022-10-18T20:16:53.237Z,17.90
2022-10-18T20:19:20.699Z,17.00
2022-10-18T20:21:48.148Z,17.10
2022-10-18T20:24:15.557Z,17.00
2022-10-18T20:26:43.779Z,17.85
2022-10-18T20:29:11.307Z,18.00
2022-10-18T20:31:39.478Z,17.27
2022-10-18T20:34:11.827Z,18.48
2022-10-18T20:36:57.735Z,16.92
2022-10-18T20:39:25.212Z,17.60
2022-10-18T20:41:52.609Z,17.75
2022-10-18T20:44:21.011Z,18.25
2022-10-18T20:46:48.802Z,18.25
2022-10-18T20:49:19.404Z,18.05
2022-10-18T20:51:46.799Z,17.60
2022-10-18T20:54:14.230Z,18.05
2022-10-18T20:56:42.138Z,17.58
2022-10-18T20:59:10.203Z,17.80
2022-10-18T21:01:39.585Z,17.25
2022-10-18T21:04:10.783Z,16.95
2022-10-18T21:06:42.047Z,17.40
2022-10-18T21:09:14.287Z,15.57
2022-10-18T21:11:46.599Z,17.23
2022-10-18T21:14:20.757Z,16.35
2022-10-18T21:16:50.058Z,16.20
2022-10-18T21:19:27.938Z,15.68
2022-10-18T21:21:57.553Z,15.40
2022-10-18T21:24:26.537Z,15.93
2022-10-18T21:26:54.790Z,16.70
2022-10-18T21:29:24.647Z,17.35
2022-10-18T21:31:59.353Z,18.83
2022-10-18T21:34:27.238Z,18.83
2022-10-18T21:36:54.537Z,18.85
2022-10-18T21:41:56.462Z,19.23
2022-10-18T21:44:23.940Z,19.27
2022-10-18T21:46:52.616Z,19.60
2022-10-18T21:49:20.382Z,18.63
2022-10-18T21:51:47.857Z,18.50
2022-10-18T21:54:16.633Z,19.08
2022-10-18T21:56:44.293Z,19.13
2022-10-18T21:59:13.760Z,17.17
2022-10-18T22:01:41.270Z,16.98
2022-10-18T22:04:22.320Z,17.20
2022-10-18T22:06:50.786Z,17.52
2022-10-18T22:14:17.836Z,17.42
2022-10-18T22:16:45.043Z,19.40
2022-10-18T22:19:12.582Z,17.83
2022-10-18T22:21:40.068Z,16.38
2022-10-18T22:24:10.006Z,16.17
2022-10-18T22:26:41.226Z,15.95
2022-10-18T22:29:28.746Z,17.80
2022-10-18T22:31:56.176Z,18.70
2022-10-18T22:34:31.097Z,18.85
2022-10-18T22:36:58.358Z,18.98
2022-10-18T22:39:25.725Z,20.40
2022-10-18T22:41:56.321Z,20.63
2022-10-18T22:44:23.902Z,19.70
2022-10-18T22:46:51.346Z,19.98
2022-10-18T22:49:19.063Z,21.75
2022-10-18T22:51:46.545Z,22.50
2022-10-18T22:54:14.046Z,23.30
